Xinxian, China
Current Conditions -  °F | °C
As of 5:00 AM on Friday 19 Dec 2014 (Local Time) from ZSJN Reporting Station
Clear Clear  
Wind Chill: 34°   Ceiling: Unl
Heat Index: 37°   Visibility: 6mi
Dew Point: 12°   Wind: 4mph
Humidity: 36%   Direction: 200°SSW
Pressure: 30.18"   Gusts: NA
Location:  36.03°N, 115.58°E
Report Text: ZSJN 182100Z 20002MPS CAVOK 03/M11 Q1022 NOSIG
Loading
Personal Weather Stations






























Interactive Weather Map New forecast layout! Learn more

10-Day Weather Forecast

Advertisements
Track Severe Weather on mobile